sensor_id;sensor_type;location;lat;lon;timestamp;P1;durP1;ratioP1;P2;durP2;ratioP2
15466;SDS011;7834;49.452;11.056;2023-12-28T00:01:23;5.03;;;3.80;;
15466;SDS011;7834;49.452;11.056;2023-12-28T00:03:49;4.60;;;3.77;;
15466;SDS011;7834;49.452;11.056;2023-12-28T00:06:15;6.07;;;3.90;;
15466;SDS011;7834;49.452;11.056;2023-12-28T00:08:40;7.80;;;3.60;;
15466;SDS011;7834;49.452;11.056;2023-12-28T00:11:06;4.67;;;3.90;;
15466;SDS011;7834;49.452;11.056;2023-12-28T00:13:32;5.43;;;4.03;;
15466;SDS011;7834;49.452;11.056;2023-12-28T00:15:58;6.07;;;3.70;;
15466;SDS011;7834;49.452;11.056;2023-12-28T00:18:24;5.03;;;3.70;;
15466;SDS011;7834;49.452;11.056;2023-12-28T00:20:49;4.33;;;3.70;;
15466;SDS011;7834;49.452;11.056;2023-12-28T00:23:15;7.30;;;4.07;;
15466;SDS011;7834;49.452;11.056;2023-12-28T00:25:41;6.50;;;3.97;;
15466;SDS011;7834;49.452;11.056;2023-12-28T00:28:06;5.63;;;4.13;;
15466;SDS011;7834;49.452;11.056;2023-12-28T00:30:32;7.40;;;4.70;;
15466;SDS011;7834;49.452;11.056;2023-12-28T00:32:58;6.87;;;4.67;;
15466;SDS011;7834;49.452;11.056;2023-12-28T00:35:24;6.43;;;4.60;;
15466;SDS011;7834;49.452;11.056;2023-12-28T00:37:49;6.57;;;4.10;;
15466;SDS011;7834;49.452;11.056;2023-12-28T00:40:15;6.43;;;3.77;;
15466;SDS011;7834;49.452;11.056;2023-12-28T00:42:41;5.57;;;3.80;;
15466;SDS011;7834;49.452;11.056;2023-12-28T00:45:08;5.13;;;3.80;;
15466;SDS011;7834;49.452;11.056;2023-12-28T00:47:33;5.73;;;3.50;;
15466;SDS011;7834;49.452;11.056;2023-12-28T00:49:59;6.77;;;3.87;;
15466;SDS011;7834;49.452;11.056;2023-12-28T00:52:25;4.97;;;3.47;;
15466;SDS011;7834;49.452;11.056;2023-12-28T00:54:50;4.73;;;3.40;;
15466;SDS011;7834;49.452;11.056;2023-12-28T00:57:16;4.40;;;3.30;;
15466;SDS011;7834;49.452;11.056;2023-12-28T00:59:41;4.67;;;3.80;;
15466;SDS011;7834;49.452;11.056;2023-12-28T01:02:07;7.00;;;3.70;;
15466;SDS011;7834;49.452;11.056;2023-12-28T01:04:32;7.30;;;3.73;;
15466;SDS011;7834;49.452;11.056;2023-12-28T01:06:58;5.30;;;3.67;;
15466;SDS011;7834;49.452;11.056;2023-12-28T01:09:27;4.83;;;3.70;;
15466;SDS011;7834;49.452;11.056;2023-12-28T01:11:53;4.87;;;3.73;;
15466;SDS011;7834;49.452;11.056;2023-12-28T01:14:18;4.77;;;4.00;;
15466;SDS011;7834;49.452;11.056;2023-12-28T01:16:44;4.37;;;3.50;;
15466;SDS011;7834;49.452;11.056;2023-12-28T01:19:09;4.70;;;3.40;;
15466;SDS011;7834;49.452;11.056;2023-12-28T01:21:35;5.63;;;3.77;;
15466;SDS011;7834;49.452;11.056;2023-12-28T01:24:01;5.80;;;3.40;;
15466;SDS011;7834;49.452;11.056;2023-12-28T01:26:26;5.07;;;3.27;;
15466;SDS011;7834;49.452;11.056;2023-12-28T01:28:52;4.77;;;3.60;;
15466;SDS011;7834;49.452;11.056;2023-12-28T01:31:18;8.00;;;3.50;;
15466;SDS011;7834;49.452;11.056;2023-12-28T01:33:43;5.40;;;3.70;;
15466;SDS011;7834;49.452;11.056;2023-12-28T01:36:18;5.67;;;3.93;;
15466;SDS011;7834;49.452;11.056;2023-12-28T01:38:44;5.20;;;3.60;;
15466;SDS011;7834;49.452;11.056;2023-12-28T01:41:10;4.60;;;3.40;;
15466;SDS011;7834;49.452;11.056;2023-12-28T01:43:35;5.07;;;3.00;;
15466;SDS011;7834;49.452;11.056;2023-12-28T01:46:01;4.50;;;2.83;;
15466;SDS011;7834;49.452;11.056;2023-12-28T01:48:27;6.63;;;3.70;;
15466;SDS011;7834;49.452;11.056;2023-12-28T01:50:53;5.20;;;3.10;;
15466;SDS011;7834;49.452;11.056;2023-12-28T01:53:19;4.47;;;3.00;;
15466;SDS011;7834;49.452;11.056;2023-12-28T01:55:44;4.63;;;2.97;;
15466;SDS011;7834;49.452;11.056;2023-12-28T01:58:10;3.43;;;2.90;;
15466;SDS011;7834;49.452;11.056;2023-12-28T02:00:36;4.23;;;3.20;;
15466;SDS011;7834;49.452;11.056;2023-12-28T02:03:03;3.73;;;3.03;;
15466;SDS011;7834;49.452;11.056;2023-12-28T02:05:29;6.13;;;3.10;;
15466;SDS011;7834;49.452;11.056;2023-12-28T02:07:55;4.47;;;3.90;;
15466;SDS011;7834;49.452;11.056;2023-12-28T02:10:22;3.97;;;3.03;;
15466;SDS011;7834;49.452;11.056;2023-12-28T02:12:48;4.27;;;3.10;;
15466;SDS011;7834;49.452;11.056;2023-12-28T02:15:15;3.63;;;2.90;;
15466;SDS011;7834;49.452;11.056;2023-12-28T02:17:43;3.83;;;3.20;;
15466;SDS011;7834;49.452;11.056;2023-12-28T02:20:11;5.00;;;3.30;;
15466;SDS011;7834;49.452;11.056;2023-12-28T02:22:38;5.00;;;3.63;;
15466;SDS011;7834;49.452;11.056;2023-12-28T02:27:44;4.53;;;3.37;;
15466;SDS011;7834;49.452;11.056;2023-12-28T02:30:10;3.83;;;3.07;;
15466;SDS011;7834;49.452;11.056;2023-12-28T02:35:08;4.37;;;3.33;;
15466;SDS011;7834;49.452;11.056;2023-12-28T02:37:35;3.53;;;2.80;;
15466;SDS011;7834;49.452;11.056;2023-12-28T02:40:01;6.13;;;3.20;;
15466;SDS011;7834;49.452;11.056;2023-12-28T02:42:27;3.87;;;3.20;;
15466;SDS011;7834;49.452;11.056;2023-12-28T02:44:53;4.17;;;3.17;;
15466;SDS011;7834;49.452;11.056;2023-12-28T02:47:18;3.33;;;3.00;;
15466;SDS011;7834;49.452;11.056;2023-12-28T02:49:44;3.63;;;3.00;;
15466;SDS011;7834;49.452;11.056;2023-12-28T02:52:09;6.20;;;3.47;;
15466;SDS011;7834;49.452;11.056;2023-12-28T02:54:35;4.70;;;3.37;;
15466;SDS011;7834;49.452;11.056;2023-12-28T02:57:00;5.87;;;3.37;;
15466;SDS011;7834;49.452;11.056;2023-12-28T02:59:26;4.80;;;3.50;;
15466;SDS011;7834;49.452;11.056;2023-12-28T03:01:51;4.73;;;3.70;;
15466;SDS011;7834;49.452;11.056;2023-12-28T03:04:17;4.23;;;3.00;;
15466;SDS011;7834;49.452;11.056;2023-12-28T03:06:46;4.83;;;3.00;;
15466;SDS011;7834;49.452;11.056;2023-12-28T03:09:11;5.03;;;3.47;;
15466;SDS011;7834;49.452;11.056;2023-12-28T03:11:38;5.70;;;3.13;;
15466;SDS011;7834;49.452;11.056;2023-12-28T03:14:05;4.00;;;3.27;;
15466;SDS011;7834;49.452;11.056;2023-12-28T03:16:31;4.00;;;3.30;;
15466;SDS011;7834;49.452;11.056;2023-12-28T03:18:56;5.33;;;3.23;;
15466;SDS011;7834;49.452;11.056;2023-12-28T03:21:23;4.70;;;3.10;;
15466;SDS011;7834;49.452;11.056;2023-12-28T03:23:48;4.33;;;3.50;;
15466;SDS011;7834;49.452;11.056;2023-12-28T03:26:14;3.70;;;3.17;;
15466;SDS011;7834;49.452;11.056;2023-12-28T03:28:40;3.90;;;3.00;;
15466;SDS011;7834;49.452;11.056;2023-12-28T03:31:06;6.07;;;3.10;;
15466;SDS011;7834;49.452;11.056;2023-12-28T03:33:33;5.00;;;3.53;;
15466;SDS011;7834;49.452;11.056;2023-12-28T03:35:59;4.47;;;3.30;;
15466;SDS011;7834;49.452;11.056;2023-12-28T03:38:24;4.63;;;3.63;;
15466;SDS011;7834;49.452;11.056;2023-12-28T03:40:50;4.53;;;3.50;;
15466;SDS011;7834;49.452;11.056;2023-12-28T03:43:17;5.33;;;2.93;;
15466;SDS011;7834;49.452;11.056;2023-12-28T03:45:42;3.63;;;2.73;;
15466;SDS011;7834;49.452;11.056;2023-12-28T03:48:10;4.33;;;3.50;;
15466;SDS011;7834;49.452;11.056;2023-12-28T03:50:36;4.43;;;3.40;;
15466;SDS011;7834;49.452;11.056;2023-12-28T03:53:02;4.47;;;3.50;;
15466;SDS011;7834;49.452;11.056;2023-12-28T03:55:27;3.87;;;3.30;;
15466;SDS011;7834;49.452;11.056;2023-12-28T03:57:53;3.90;;;3.20;;
15466;SDS011;7834;49.452;11.056;2023-12-28T04:00:21;4.30;;;3.10;;
15466;SDS011;7834;49.452;11.056;2023-12-28T04:02:48;4.97;;;3.20;;
15466;SDS011;7834;49.452;11.056;2023-12-28T04:05:14;6.90;;;3.27;;
15466;SDS011;7834;49.452;11.056;2023-12-28T04:07:40;4.57;;;3.47;;
15466;SDS011;7834;49.452;11.056;2023-12-28T04:10:06;5.73;;;2.97;;
15466;SDS011;7834;49.452;11.056;2023-12-28T04:12:31;3.20;;;2.90;;
15466;SDS011;7834;49.452;11.056;2023-12-28T04:14:57;4.03;;;2.90;;
15466;SDS011;7834;49.452;11.056;2023-12-28T04:17:22;4.30;;;3.00;;
15466;SDS011;7834;49.452;11.056;2023-12-28T04:19:48;5.90;;;3.27;;
15466;SDS011;7834;49.452;11.056;2023-12-28T04:22:14;3.67;;;2.80;;
15466;SDS011;7834;49.452;11.056;2023-12-28T04:24:39;4.23;;;2.97;;
15466;SDS011;7834;49.452;11.056;2023-12-28T04:27:05;3.43;;;3.13;;
15466;SDS011;7834;49.452;11.056;2023-12-28T04:29:31;4.73;;;3.23;;
15466;SDS011;7834;49.452;11.056;2023-12-28T04:31:56;4.90;;;3.07;;
15466;SDS011;7834;49.452;11.056;2023-12-28T04:34:22;3.60;;;3.00;;
15466;SDS011;7834;49.452;11.056;2023-12-28T04:36:48;4.33;;;3.00;;
15466;SDS011;7834;49.452;11.056;2023-12-28T04:39:14;4.63;;;3.20;;
15466;SDS011;7834;49.452;11.056;2023-12-28T04:41:40;4.53;;;3.10;;
15466;SDS011;7834;49.452;11.056;2023-12-28T04:44:05;3.83;;;3.10;;
15466;SDS011;7834;49.452;11.056;2023-12-28T04:46:31;3.80;;;3.00;;
15466;SDS011;7834;49.452;11.056;2023-12-28T04:48:56;4.90;;;2.97;;
15466;SDS011;7834;49.452;11.056;2023-12-28T04:51:25;4.73;;;3.00;;
15466;SDS011;7834;49.452;11.056;2023-12-28T04:53:53;4.27;;;3.00;;
15466;SDS011;7834;49.452;11.056;2023-12-28T04:56:19;4.50;;;3.00;;
15466;SDS011;7834;49.452;11.056;2023-12-28T04:58:45;5.00;;;3.00;;
15466;SDS011;7834;49.452;11.056;2023-12-28T05:01:11;6.00;;;2.93;;
15466;SDS011;7834;49.452;11.056;2023-12-28T05:03:36;4.33;;;2.90;;
15466;SDS011;7834;49.452;11.056;2023-12-28T05:06:02;4.97;;;2.90;;
15466;SDS011;7834;49.452;11.056;2023-12-28T05:08:28;6.10;;;3.10;;
15466;SDS011;7834;49.452;11.056;2023-12-28T05:10:53;3.00;;;2.70;;
15466;SDS011;7834;49.452;11.056;2023-12-28T05:13:19;3.47;;;3.03;;
15466;SDS011;7834;49.452;11.056;2023-12-28T05:15:44;6.30;;;3.10;;
15466;SDS011;7834;49.452;11.056;2023-12-28T05:18:10;5.13;;;3.10;;
15466;SDS011;7834;49.452;11.056;2023-12-28T05:20:35;5.03;;;3.00;;
15466;SDS011;7834;49.452;11.056;2023-12-28T05:23:01;4.20;;;3.20;;
15466;SDS011;7834;49.452;11.056;2023-12-28T05:25:27;6.70;;;3.50;;
15466;SDS011;7834;49.452;11.056;2023-12-28T05:27:52;5.77;;;3.73;;
15466;SDS011;7834;49.452;11.056;2023-12-28T05:30:24;6.90;;;4.30;;
15466;SDS011;7834;49.452;11.056;2023-12-28T05:32:52;7.03;;;3.80;;
15466;SDS011;7834;49.452;11.056;2023-12-28T05:35:18;6.97;;;3.80;;
15466;SDS011;7834;49.452;11.056;2023-12-28T05:37:43;6.03;;;3.77;;
15466;SDS011;7834;49.452;11.056;2023-12-28T05:40:09;5.57;;;3.43;;
15466;SDS011;7834;49.452;11.056;2023-12-28T05:42:35;6.30;;;3.70;;
15466;SDS011;7834;49.452;11.056;2023-12-28T05:45:00;6.63;;;3.47;;
15466;SDS011;7834;49.452;11.056;2023-12-28T05:47:26;4.50;;;3.93;;
15466;SDS011;7834;49.452;11.056;2023-12-28T05:49:51;4.83;;;3.93;;
15466;SDS011;7834;49.452;11.056;2023-12-28T05:52:17;6.53;;;3.57;;
15466;SDS011;7834;49.452;11.056;2023-12-28T05:54:44;4.63;;;3.40;;
15466;SDS011;7834;49.452;11.056;2023-12-28T05:57:09;4.90;;;3.60;;
15466;SDS011;7834;49.452;11.056;2023-12-28T05:59:38;6.50;;;3.77;;
15466;SDS011;7834;49.452;11.056;2023-12-28T06:02:05;7.47;;;3.80;;
15466;SDS011;7834;49.452;11.056;2023-12-28T06:04:31;7.77;;;4.10;;
15466;SDS011;7834;49.452;11.056;2023-12-28T06:06:58;9.57;;;4.23;;
15466;SDS011;7834;49.452;11.056;2023-12-28T06:09:24;9.47;;;4.67;;
15466;SDS011;7834;49.452;11.056;2023-12-28T06:11:49;9.67;;;4.93;;
15466;SDS011;7834;49.452;11.056;2023-12-28T06:14:15;8.23;;;4.53;;
15466;SDS011;7834;49.452;11.056;2023-12-28T06:16:40;9.20;;;4.87;;
15466;SDS011;7834;49.452;11.056;2023-12-28T06:19:06;8.90;;;4.50;;
15466;SDS011;7834;49.452;11.056;2023-12-28T06:21:31;5.97;;;3.87;;
15466;SDS011;7834;49.452;11.056;2023-12-28T06:23:58;6.93;;;3.77;;
15466;SDS011;7834;49.452;11.056;2023-12-28T06:26:23;5.57;;;3.40;;
15466;SDS011;7834;49.452;11.056;2023-12-28T06:28:49;6.50;;;3.57;;
15466;SDS011;7834;49.452;11.056;2023-12-28T06:31:14;6.73;;;3.47;;
15466;SDS011;7834;49.452;11.056;2023-12-28T06:33:40;7.00;;;3.67;;
15466;SDS011;7834;49.452;11.056;2023-12-28T06:36:07;4.57;;;2.87;;
15466;SDS011;7834;49.452;11.056;2023-12-28T06:38:32;7.43;;;3.10;;
15466;SDS011;7834;49.452;11.056;2023-12-28T06:40:58;3.47;;;2.90;;
15466;SDS011;7834;49.452;11.056;2023-12-28T06:43:24;4.63;;;2.97;;
15466;SDS011;7834;49.452;11.056;2023-12-28T06:45:49;6.87;;;3.53;;
15466;SDS011;7834;49.452;11.056;2023-12-28T06:48:17;6.93;;;3.23;;
15466;SDS011;7834;49.452;11.056;2023-12-28T06:50:42;11.70;;;2.97;;
15466;SDS011;7834;49.452;11.056;2023-12-28T06:53:08;6.63;;;3.33;;
15466;SDS011;7834;49.452;11.056;2023-12-28T06:55:33;5.40;;;2.90;;
15466;SDS011;7834;49.452;11.056;2023-12-28T06:58:00;5.80;;;3.27;;
15466;SDS011;7834;49.452;11.056;2023-12-28T07:00:25;5.73;;;2.73;;
15466;SDS011;7834;49.452;11.056;2023-12-28T07:02:51;5.97;;;3.20;;
15466;SDS011;7834;49.452;11.056;2023-12-28T07:05:16;4.43;;;3.00;;
15466;SDS011;7834;49.452;11.056;2023-12-28T07:07:42;4.07;;;2.70;;
15466;SDS011;7834;49.452;11.056;2023-12-28T07:10:07;3.40;;;2.80;;
15466;SDS011;7834;49.452;11.056;2023-12-28T07:12:33;4.30;;;3.00;;
15466;SDS011;7834;49.452;11.056;2023-12-28T07:14:59;4.47;;;3.00;;
15466;SDS011;7834;49.452;11.056;2023-12-28T07:17:24;4.10;;;3.13;;
15466;SDS011;7834;49.452;11.056;2023-12-28T07:19:50;4.13;;;3.10;;
15466;SDS011;7834;49.452;11.056;2023-12-28T07:22:15;3.10;;;2.80;;
15466;SDS011;7834;49.452;11.056;2023-12-28T07:24:41;5.53;;;3.13;;
15466;SDS011;7834;49.452;11.056;2023-12-28T07:27:09;6.80;;;3.43;;
15466;SDS011;7834;49.452;11.056;2023-12-28T07:29:34;4.40;;;3.23;;
15466;SDS011;7834;49.452;11.056;2023-12-28T07:32:00;7.05;;;3.25;;
15466;SDS011;7834;49.452;11.056;2023-12-28T07:34:25;4.20;;;3.20;;
15466;SDS011;7834;49.452;11.056;2023-12-28T07:36:51;4.23;;;3.03;;
15466;SDS011;7834;49.452;11.056;2023-12-28T07:39:17;4.37;;;3.07;;
15466;SDS011;7834;49.452;11.056;2023-12-28T07:41:42;4.40;;;3.20;;
15466;SDS011;7834;49.452;11.056;2023-12-28T07:44:08;4.77;;;3.40;;
15466;SDS011;7834;49.452;11.056;2023-12-28T07:46:33;4.27;;;3.50;;
15466;SDS011;7834;49.452;11.056;2023-12-28T07:48:59;6.30;;;3.70;;
15466;SDS011;7834;49.452;11.056;2023-12-28T07:51:25;5.20;;;3.53;;
15466;SDS011;7834;49.452;11.056;2023-12-28T07:53:51;5.40;;;3.83;;
15466;SDS011;7834;49.452;11.056;2023-12-28T07:56:17;4.68;;;4.05;;
15466;SDS011;7834;49.452;11.056;2023-12-28T07:58:43;6.55;;;3.85;;
15466;SDS011;7834;49.452;11.056;2023-12-28T08:01:11;4.53;;;3.58;;
15466;SDS011;7834;49.452;11.056;2023-12-28T08:03:36;4.87;;;3.70;;
15466;SDS011;7834;49.452;11.056;2023-12-28T08:06:03;7.00;;;3.50;;
15466;SDS011;7834;49.452;11.056;2023-12-28T08:08:28;5.80;;;3.67;;
15466;SDS011;7834;49.452;11.056;2023-12-28T08:10:54;9.18;;;3.85;;
15466;SDS011;7834;49.452;11.056;2023-12-28T08:13:19;6.03;;;3.85;;
15466;SDS011;7834;49.452;11.056;2023-12-28T08:15:45;5.47;;;3.55;;
15466;SDS011;7834;49.452;11.056;2023-12-28T08:18:12;7.25;;;3.90;;
15466;SDS011;7834;49.452;11.056;2023-12-28T08:20:37;11.37;;;3.30;;
15466;SDS011;7834;49.452;11.056;2023-12-28T08:23:03;5.93;;;3.58;;
15466;SDS011;7834;49.452;11.056;2023-12-28T08:25:29;6.40;;;3.70;;
15466;SDS011;7834;49.452;11.056;2023-12-28T08:27:55;4.43;;;3.22;;
15466;SDS011;7834;49.452;11.056;2023-12-28T08:30:23;5.63;;;3.42;;
15466;SDS011;7834;49.452;11.056;2023-12-28T08:32:49;5.63;;;4.00;;
15466;SDS011;7834;49.452;11.056;2023-12-28T08:35:14;4.53;;;3.30;;
15466;SDS011;7834;49.452;11.056;2023-12-28T08:37:40;5.18;;;3.58;;
15466;SDS011;7834;49.452;11.056;2023-12-28T08:40:06;5.25;;;3.25;;
15466;SDS011;7834;49.452;11.056;2023-12-28T08:42:32;7.28;;;3.25;;
15466;SDS011;7834;49.452;11.056;2023-12-28T08:44:57;9.30;;;3.83;;
15466;SDS011;7834;49.452;11.056;2023-12-28T08:47:23;7.32;;;4.07;;
15466;SDS011;7834;49.452;11.056;2023-12-28T08:49:49;8.90;;;3.53;;
15466;SDS011;7834;49.452;11.056;2023-12-28T08:52:15;5.25;;;3.72;;
15466;SDS011;7834;49.452;11.056;2023-12-28T08:54:40;5.07;;;3.20;;
15466;SDS011;7834;49.452;11.056;2023-12-28T08:57:06;5.15;;;3.80;;
15466;SDS011;7834;49.452;11.056;2023-12-28T08:59:35;7.03;;;3.47;;
15466;SDS011;7834;49.452;11.056;2023-12-28T09:02:01;5.85;;;3.17;;
15466;SDS011;7834;49.452;11.056;2023-12-28T09:04:26;4.85;;;3.10;;
15466;SDS011;7834;49.452;11.056;2023-12-28T09:06:52;7.68;;;3.25;;
15466;SDS011;7834;49.452;11.056;2023-12-28T09:09:18;7.47;;;3.83;;
15466;SDS011;7834;49.452;11.056;2023-12-28T09:11:43;6.22;;;3.28;;
15466;SDS011;7834;49.452;11.056;2023-12-28T09:14:09;4.38;;;3.15;;
15466;SDS011;7834;49.452;11.056;2023-12-28T09:16:34;4.95;;;3.50;;
15466;SDS011;7834;49.452;11.056;2023-12-28T09:19:00;5.07;;;3.05;;
15466;SDS011;7834;49.452;11.056;2023-12-28T09:21:27;5.07;;;3.47;;
15466;SDS011;7834;49.452;11.056;2023-12-28T09:23:52;3.97;;;3.22;;
15466;SDS011;7834;49.452;11.056;2023-12-28T09:26:18;6.55;;;3.90;;
15466;SDS011;7834;49.452;11.056;2023-12-28T09:28:43;6.35;;;3.70;;
15466;SDS011;7834;49.452;11.056;2023-12-28T09:31:09;6.57;;;3.55;;
15466;SDS011;7834;49.452;11.056;2023-12-28T09:33:35;4.80;;;3.10;;
15466;SDS011;7834;49.452;11.056;2023-12-28T09:36:02;5.45;;;3.33;;
15466;SDS011;7834;49.452;11.056;2023-12-28T09:38:28;5.75;;;3.80;;
15466;SDS011;7834;49.452;11.056;2023-12-28T09:40:54;5.00;;;3.33;;
15466;SDS011;7834;49.452;11.056;2023-12-28T09:45:46;6.03;;;3.85;;
15466;SDS011;7834;49.452;11.056;2023-12-28T09:48:11;8.75;;;4.03;;
15466;SDS011;7834;49.452;11.056;2023-12-28T09:50:38;7.97;;;3.65;;
15466;SDS011;7834;49.452;11.056;2023-12-28T09:53:03;6.10;;;3.80;;
15466;SDS011;7834;49.452;11.056;2023-12-28T09:55:29;10.68;;;4.05;;
15466;SDS011;7834;49.452;11.056;2023-12-28T09:57:55;7.72;;;4.10;;
15466;SDS011;7834;49.452;11.056;2023-12-28T10:00:22;10.98;;;3.95;;
15466;SDS011;7834;49.452;11.056;2023-12-28T10:02:48;6.32;;;3.90;;
15466;SDS011;7834;49.452;11.056;2023-12-28T10:05:13;6.00;;;3.67;;
15466;SDS011;7834;49.452;11.056;2023-12-28T10:07:40;5.28;;;3.92;;
15466;SDS011;7834;49.452;11.056;2023-12-28T10:10:05;6.65;;;3.83;;
15466;SDS011;7834;49.452;11.056;2023-12-28T10:12:32;6.18;;;4.18;;
15466;SDS011;7834;49.452;11.056;2023-12-28T10:14:57;7.90;;;4.30;;
15466;SDS011;7834;49.452;11.056;2023-12-28T10:17:23;5.88;;;3.80;;
15466;SDS011;7834;49.452;11.056;2023-12-28T10:19:48;5.55;;;3.83;;
15466;SDS011;7834;49.452;11.056;2023-12-28T10:22:14;6.00;;;3.70;;
15466;SDS011;7834;49.452;11.056;2023-12-28T10:24:43;7.70;;;3.80;;
15466;SDS011;7834;49.452;11.056;2023-12-28T10:27:09;3.60;;;3.25;;
15466;SDS011;7834;49.452;11.056;2023-12-28T10:29:34;7.55;;;3.90;;
15466;SDS011;7834;49.452;11.056;2023-12-28T10:32:00;8.20;;;3.72;;
15466;SDS011;7834;49.452;11.056;2023-12-28T10:34:26;6.28;;;3.97;;
15466;SDS011;7834;49.452;11.056;2023-12-28T10:36:51;6.07;;;3.67;;
15466;SDS011;7834;49.452;11.056;2023-12-28T10:39:18;7.07;;;3.83;;
15466;SDS011;7834;49.452;11.056;2023-12-28T10:41:44;5.20;;;3.97;;
15466;SDS011;7834;49.452;11.056;2023-12-28T10:44:13;6.38;;;4.00;;
15466;SDS011;7834;49.452;11.056;2023-12-28T10:46:42;4.30;;;3.90;;
15466;SDS011;7834;49.452;11.056;2023-12-28T10:49:10;4.35;;;3.38;;
15466;SDS011;7834;49.452;11.056;2023-12-28T10:51:39;4.80;;;3.80;;
15466;SDS011;7834;49.452;11.056;2023-12-28T10:56:35;4.93;;;3.70;;
15466;SDS011;7834;49.452;11.056;2023-12-28T11:01:31;4.55;;;3.72;;
15466;SDS011;7834;49.452;11.056;2023-12-28T11:03:58;7.50;;;4.32;;
15466;SDS011;7834;49.452;11.056;2023-12-28T11:06:29;6.40;;;3.85;;
15466;SDS011;7834;49.452;11.056;2023-12-28T11:08:55;8.30;;;4.43;;
15466;SDS011;7834;49.452;11.056;2023-12-28T11:11:22;6.55;;;4.00;;
15466;SDS011;7834;49.452;11.056;2023-12-28T11:13:48;5.75;;;4.22;;
15466;SDS011;7834;49.452;11.056;2023-12-28T11:16:15;4.93;;;4.43;;
15466;SDS011;7834;49.452;11.056;2023-12-28T11:18:41;5.50;;;3.85;;
15466;SDS011;7834;49.452;11.056;2023-12-28T11:21:08;4.93;;;3.83;;
15466;SDS011;7834;49.452;11.056;2023-12-28T11:23:33;6.10;;;3.90;;
15466;SDS011;7834;49.452;11.056;2023-12-28T11:25:59;6.65;;;3.90;;
15466;SDS011;7834;49.452;11.056;2023-12-28T11:28:25;6.00;;;4.30;;
15466;SDS011;7834;49.452;11.056;2023-12-28T11:30:51;6.75;;;3.78;;
15466;SDS011;7834;49.452;11.056;2023-12-28T11:33:17;6.03;;;3.42;;
15466;SDS011;7834;49.452;11.056;2023-12-28T11:35:42;4.80;;;3.50;;
15466;SDS011;7834;49.452;11.056;2023-12-28T11:38:08;6.60;;;3.35;;
15466;SDS011;7834;49.452;11.056;2023-12-28T11:40:41;4.45;;;3.20;;
15466;SDS011;7834;49.452;11.056;2023-12-28T11:43:19;4.82;;;3.25;;
15466;SDS011;7834;49.452;11.056;2023-12-28T11:45:48;3.65;;;3.15;;
15466;SDS011;7834;49.452;11.056;2023-12-28T11:48:24;3.90;;;2.88;;
15466;SDS011;7834;49.452;11.056;2023-12-28T11:50:57;3.90;;;3.08;;
15466;SDS011;7834;49.452;11.056;2023-12-28T11:53:23;5.85;;;3.80;;
15466;SDS011;7834;49.452;11.056;2023-12-28T11:55:49;5.10;;;3.80;;
15466;SDS011;7834;49.452;11.056;2023-12-28T11:58:18;4.47;;;3.60;;
15466;SDS011;7834;49.452;11.056;2023-12-28T12:00:43;5.18;;;4.05;;
15466;SDS011;7834;49.452;11.056;2023-12-28T12:03:09;4.70;;;3.92;;
15466;SDS011;7834;49.452;11.056;2023-12-28T12:05:35;7.55;;;4.13;;
15466;SDS011;7834;49.452;11.056;2023-12-28T12:08:01;7.30;;;4.13;;
15466;SDS011;7834;49.452;11.056;2023-12-28T12:10:26;5.28;;;4.05;;
15466;SDS011;7834;49.452;11.056;2023-12-28T12:12:52;6.30;;;4.50;;
15466;SDS011;7834;49.452;11.056;2023-12-28T12:15:18;8.55;;;4.57;;
15466;SDS011;7834;49.452;11.056;2023-12-28T12:17:44;6.43;;;4.30;;
15466;SDS011;7834;49.452;11.056;2023-12-28T12:20:09;7.90;;;4.35;;
15466;SDS011;7834;49.452;11.056;2023-12-28T12:22:35;6.20;;;3.95;;
15466;SDS011;7834;49.452;11.056;2023-12-28T12:25:01;7.38;;;4.25;;
15466;SDS011;7834;49.452;11.056;2023-12-28T12:27:29;8.90;;;4.50;;
15466;SDS011;7834;49.452;11.056;2023-12-28T12:29:54;5.85;;;3.45;;
15466;SDS011;7834;49.452;11.056;2023-12-28T12:32:20;7.75;;;3.95;;
15466;SDS011;7834;49.452;11.056;2023-12-28T12:34:47;10.50;;;4.07;;
15466;SDS011;7834;49.452;11.056;2023-12-28T12:37:12;6.82;;;4.22;;
15466;SDS011;7834;49.452;11.056;2023-12-28T12:39:38;5.97;;;3.70;;
15466;SDS011;7834;49.452;11.056;2023-12-28T12:42:04;6.28;;;5.05;;
15466;SDS011;7834;49.452;11.056;2023-12-28T12:44:29;5.55;;;4.00;;
15466;SDS011;7834;49.452;11.056;2023-12-28T12:47:01;4.53;;;3.63;;
15466;SDS011;7834;49.452;11.056;2023-12-28T12:49:27;7.45;;;4.43;;
15466;SDS011;7834;49.452;11.056;2023-12-28T12:51:52;7.60;;;4.70;;
15466;SDS011;7834;49.452;11.056;2023-12-28T12:54:18;6.75;;;4.32;;
15466;SDS011;7834;49.452;11.056;2023-12-28T12:56:44;7.00;;;4.25;;
15466;SDS011;7834;49.452;11.056;2023-12-28T12:59:10;7.22;;;4.70;;
15466;SDS011;7834;49.452;11.056;2023-12-28T13:01:41;8.30;;;4.00;;
15466;SDS011;7834;49.452;11.056;2023-12-28T13:04:07;6.20;;;3.75;;
15466;SDS011;7834;49.452;11.056;2023-12-28T13:06:32;4.78;;;3.75;;
15466;SDS011;7834;49.452;11.056;2023-12-28T13:08:58;6.13;;;3.95;;
15466;SDS011;7834;49.452;11.056;2023-12-28T13:11:23;4.53;;;3.47;;
15466;SDS011;7834;49.452;11.056;2023-12-28T13:13:52;5.00;;;4.10;;
15466;SDS011;7834;49.452;11.056;2023-12-28T13:16:17;5.38;;;3.90;;
15466;SDS011;7834;49.452;11.056;2023-12-28T13:18:43;4.78;;;3.55;;
15466;SDS011;7834;49.452;11.056;2023-12-28T13:21:09;5.30;;;4.03;;
15466;SDS011;7834;49.452;11.056;2023-12-28T13:23:34;6.30;;;4.13;;
15466;SDS011;7834;49.452;11.056;2023-12-28T13:26:00;6.20;;;3.63;;
15466;SDS011;7834;49.452;11.056;2023-12-28T13:28:25;5.28;;;4.13;;
15466;SDS011;7834;49.452;11.056;2023-12-28T13:30:51;4.90;;;4.00;;
15466;SDS011;7834;49.452;11.056;2023-12-28T13:33:21;8.18;;;5.65;;
15466;SDS011;7834;49.452;11.056;2023-12-28T13:35:46;8.68;;;5.13;;
15466;SDS011;7834;49.452;11.056;2023-12-28T13:38:12;9.52;;;4.60;;
15466;SDS011;7834;49.452;11.056;2023-12-28T13:40:37;8.63;;;4.63;;
15466;SDS011;7834;49.452;11.056;2023-12-28T13:43:03;9.88;;;4.50;;
15466;SDS011;7834;49.452;11.056;2023-12-28T13:45:29;6.53;;;4.60;;
15466;SDS011;7834;49.452;11.056;2023-12-28T13:47:54;7.00;;;4.40;;
15466;SDS011;7834;49.452;11.056;2023-12-28T13:50:20;6.72;;;4.60;;
15466;SDS011;7834;49.452;11.056;2023-12-28T13:56:07;9.27;;;3.97;;
15466;SDS011;7834;49.452;11.056;2023-12-28T13:58:34;7.05;;;4.40;;
15466;SDS011;7834;49.452;11.056;2023-12-28T14:00:59;7.55;;;4.38;;
15466;SDS011;7834;49.452;11.056;2023-12-28T14:03:25;4.28;;;3.72;;
15466;SDS011;7834;49.452;11.056;2023-12-28T14:05:50;5.63;;;4.20;;
15466;SDS011;7834;49.452;11.056;2023-12-28T14:08:16;7.75;;;4.40;;
15466;SDS011;7834;49.452;11.056;2023-12-28T14:10:41;5.68;;;4.18;;
15466;SDS011;7834;49.452;11.056;2023-12-28T14:13:07;7.53;;;4.70;;
15466;SDS011;7834;49.452;11.056;2023-12-28T14:15:32;7.32;;;4.80;;
15466;SDS011;7834;49.452;11.056;2023-12-28T14:17:58;7.40;;;5.45;;
15466;SDS011;7834;49.452;11.056;2023-12-28T14:20:23;9.02;;;5.18;;
15466;SDS011;7834;49.452;11.056;2023-12-28T14:22:49;6.93;;;4.95;;
15466;SDS011;7834;49.452;11.056;2023-12-28T14:25:15;9.68;;;5.00;;
15466;SDS011;7834;49.452;11.056;2023-12-28T14:27:41;6.22;;;4.10;;
15466;SDS011;7834;49.452;11.056;2023-12-28T14:30:06;5.57;;;4.18;;
15466;SDS011;7834;49.452;11.056;2023-12-28T14:32:34;5.88;;;4.13;;
15466;SDS011;7834;49.452;11.056;2023-12-28T14:35:00;9.18;;;4.35;;
15466;SDS011;7834;49.452;11.056;2023-12-28T14:37:26;4.95;;;3.83;;
15466;SDS011;7834;49.452;11.056;2023-12-28T14:39:51;5.65;;;4.10;;
15466;SDS011;7834;49.452;11.056;2023-12-28T14:42:17;5.32;;;3.83;;
15466;SDS011;7834;49.452;11.056;2023-12-28T14:44:42;9.80;;;4.35;;
15466;SDS011;7834;49.452;11.056;2023-12-28T14:47:08;5.90;;;4.07;;
15466;SDS011;7834;49.452;11.056;2023-12-28T14:49:34;6.53;;;4.03;;
15466;SDS011;7834;49.452;11.056;2023-12-28T14:51:59;6.90;;;3.85;;
15466;SDS011;7834;49.452;11.056;2023-12-28T14:54:25;6.10;;;4.20;;
15466;SDS011;7834;49.452;11.056;2023-12-28T14:56:50;6.88;;;4.80;;